createdAt,value
2022-09-10T00:01:29.342Z,10.30
2022-09-10T00:03:56.888Z,10.30
2022-09-10T00:06:28.276Z,10.30
2022-09-10T00:08:57.959Z,10.30
2022-09-10T00:11:26.985Z,10.30
2022-09-10T00:13:54.350Z,10.20
2022-09-10T00:16:22.116Z,10.20
2022-09-10T00:18:50.246Z,10.20
2022-09-10T00:21:20.990Z,10.20
2022-09-10T00:23:49.286Z,10.20
2022-09-10T00:26:22.701Z,10.20
2022-09-10T00:28:52.247Z,10.20
2022-09-10T00:31:21.947Z,10.10
2022-09-10T00:33:50.512Z,10.20
2022-09-10T00:36:21.858Z,10.10
2022-09-10T00:38:50.673Z,10.10
2022-09-10T00:41:20.223Z,10.10
2022-09-10T00:43:56.763Z,10.00
2022-09-10T00:46:37.241Z,10.00
2022-09-10T00:49:15.845Z,10.00
2022-09-10T00:51:46.404Z,10.00
2022-09-10T00:54:15.465Z,10.00
2022-09-10T00:56:43.233Z,9.90
2022-09-10T00:59:12.227Z,10.00
2022-09-10T01:01:40.737Z,9.90
2022-09-10T01:04:10.754Z,9.90
2022-09-10T01:06:44.487Z,9.80
2022-09-10T01:09:13.152Z,9.90
2022-09-10T01:12:17.464Z,9.80
2022-09-10T01:15:09.532Z,9.80
2022-09-10T01:18:01.145Z,9.80
2022-09-10T01:20:51.323Z,9.70
2022-09-10T01:23:50.009Z,9.60
2022-09-10T01:26:17.017Z,9.60
2022-09-10T01:28:59.577Z,9.50
2022-09-10T01:31:32.066Z,9.50
2022-09-10T01:34:06.086Z,9.50
2022-09-10T01:36:39.187Z,9.50
2022-09-10T01:39:07.004Z,9.50
2022-09-10T01:41:34.463Z,9.40
2022-09-10T01:44:28.874Z,9.40
2022-09-10T01:47:08.501Z,9.40
2022-09-10T01:50:07.842Z,9.40
2022-09-10T01:53:14.217Z,9.30
2022-09-10T01:55:54.142Z,9.30
2022-09-10T01:58:35.768Z,9.30
2022-09-10T02:01:50.644Z,9.30
2022-09-10T02:04:19.900Z,9.20
2022-09-10T02:06:49.262Z,9.20
2022-09-10T02:09:18.677Z,9.20
2022-09-10T02:11:52.597Z,9.20
2022-09-10T02:14:43.343Z,9.20
2022-09-10T02:17:28.387Z,9.10
2022-09-10T02:19:56.258Z,9.10
2022-09-10T02:22:25.258Z,9.10
2022-09-10T02:24:52.794Z,9.10
2022-09-10T02:27:19.929Z,9.10
2022-09-10T02:29:47.043Z,9.10
2022-09-10T02:32:14.062Z,9.10
2022-09-10T02:34:41.287Z,9.00
2022-09-10T02:37:08.520Z,9.00
2022-09-10T02:39:37.754Z,8.90
2022-09-10T02:42:05.197Z,8.90
2022-09-10T02:44:32.216Z,8.80
2022-09-10T02:47:01.176Z,8.80
2022-09-10T02:49:28.356Z,8.80
2022-09-10T02:51:55.596Z,8.70
2022-09-10T02:54:24.068Z,8.80
2022-09-10T02:56:51.134Z,8.80
2022-09-10T02:59:20.956Z,8.80
2022-09-10T03:01:48.472Z,8.80
2022-09-10T03:04:16.776Z,8.70
2022-09-10T03:06:47.468Z,8.70
2022-09-10T03:09:14.519Z,8.70
2022-09-10T03:11:41.929Z,8.60
2022-09-10T03:14:13.199Z,8.60
2022-09-10T03:16:40.420Z,8.50
2022-09-10T03:19:08.119Z,8.50
2022-09-10T03:21:35.541Z,8.40
2022-09-10T03:24:05.170Z,8.40
2022-09-10T03:26:32.925Z,8.40
2022-09-10T03:29:00.371Z,8.40
2022-09-10T03:31:31.234Z,8.40
2022-09-10T03:33:59.780Z,8.40
2022-09-10T03:36:31.558Z,8.40
2022-09-10T03:38:59.697Z,8.40
2022-09-10T03:41:28.600Z,8.30
2022-09-10T03:43:58.596Z,8.30
2022-09-10T03:46:27.148Z,8.30
2022-09-10T03:48:57.269Z,8.20
2022-09-10T03:51:27.553Z,8.20
2022-09-10T03:53:56.109Z,8.20
2022-09-10T03:56:23.348Z,8.20
2022-09-10T03:58:52.112Z,8.30
2022-09-10T04:01:19.477Z,8.30
2022-09-10T04:03:48.919Z,8.20
2022-09-10T04:06:16.442Z,8.20
2022-09-10T04:08:43.753Z,8.20
2022-09-10T04:11:14.223Z,8.20
2022-09-10T04:13:42.251Z,8.10
2022-09-10T04:16:12.071Z,8.20
2022-09-10T04:18:40.368Z,8.20
2022-09-10T04:21:07.487Z,8.20
2022-09-10T04:23:35.349Z,8.20
2022-09-10T04:26:17.721Z,8.20
2022-09-10T04:28:47.801Z,8.10
2022-09-10T04:31:16.454Z,8.10
2022-09-10T04:33:45.126Z,8.00
2022-09-10T04:36:15.991Z,8.00
2022-09-10T04:38:44.728Z,8.00
2022-09-10T04:41:15.752Z,8.00
2022-09-10T04:43:43.785Z,8.10
2022-09-10T04:46:11.065Z,8.10
2022-09-10T04:48:40.968Z,8.20
2022-09-10T04:51:18.723Z,8.20
2022-09-10T04:53:48.306Z,8.10
2022-09-10T04:56:16.021Z,8.10
2022-09-10T04:58:44.429Z,8.20
2022-09-10T05:01:12.366Z,8.30
2022-09-10T05:03:40.090Z,8.30
2022-09-10T05:06:08.378Z,8.30
2022-09-10T05:08:37.747Z,8.40
2022-09-10T05:11:05.585Z,8.40
2022-09-10T05:13:35.170Z,8.50
2022-09-10T05:16:04.727Z,8.50
2022-09-10T05:18:34.182Z,8.50
2022-09-10T05:21:04.856Z,8.60
2022-09-10T05:23:35.849Z,8.60
2022-09-10T05:26:04.597Z,8.70
2022-09-10T05:28:33.062Z,8.80
2022-09-10T05:31:04.444Z,8.80
2022-09-10T05:33:33.853Z,8.80
2022-09-10T05:36:01.075Z,8.90
2022-09-10T05:38:31.634Z,9.00
2022-09-10T05:40:58.757Z,9.10
2022-09-10T05:43:27.590Z,9.10
2022-09-10T05:45:56.301Z,9.20
2022-09-10T05:48:23.360Z,9.20
2022-09-10T05:50:51.021Z,9.30
2022-09-10T05:53:18.419Z,9.30
2022-09-10T05:55:46.204Z,9.30
2022-09-10T05:58:13.904Z,9.40
2022-09-10T06:00:43.336Z,9.50
2022-09-10T06:03:10.696Z,9.60
2022-09-10T06:05:41.083Z,9.60
2022-09-10T06:08:09.131Z,9.70
2022-09-10T06:10:41.020Z,9.80
2022-09-10T06:13:08.208Z,9.90
2022-09-10T06:15:36.095Z,10.00
2022-09-10T06:18:04.133Z,10.10
2022-09-10T06:20:32.201Z,10.20
2022-09-10T06:23:00.347Z,10.30
2022-09-10T06:25:28.590Z,10.40
2022-09-10T06:27:57.222Z,10.50
2022-09-10T06:30:26.232Z,10.60
2022-09-10T06:32:53.448Z,10.60
2022-09-10T06:35:21.705Z,10.60
2022-09-10T06:37:50.513Z,10.80
2022-09-10T06:40:18.632Z,10.90
2022-09-10T06:42:45.846Z,10.90
2022-09-10T06:45:12.910Z,11.10
2022-09-10T06:48:37.107Z,11.20
2022-09-10T06:50:55.507Z,11.30
2022-09-10T06:53:28.924Z,11.50
2022-09-10T06:58:25.157Z,12.20
2022-09-10T07:00:53.260Z,12.80
2022-09-10T07:03:22.618Z,15.40
2022-09-10T07:05:53.555Z,16.80
2022-09-10T07:08:23.616Z,17.80
2022-09-10T07:11:04.928Z,18.90
2022-09-10T07:41:12.549Z,24.20
2022-09-10T07:43:44.120Z,24.80
2022-09-10T07:46:20.401Z,25.50
2022-09-10T07:48:55.120Z,25.20
2022-09-10T07:51:23.723Z,25.30
2022-09-10T07:53:56.406Z,24.60
2022-09-10T07:56:28.923Z,24.20
2022-09-10T07:58:57.635Z,24.40
2022-09-10T08:01:29.347Z,24.90
2022-09-10T08:03:58.674Z,24.20
2022-09-10T08:06:28.172Z,24.20
2022-09-10T08:08:56.733Z,24.10
2022-09-10T08:11:24.548Z,23.40
2022-09-10T08:24:01.305Z,21.10
2022-09-10T08:26:30.060Z,20.90
2022-09-10T08:29:00.101Z,20.00
2022-09-10T08:31:28.162Z,19.70
2022-09-10T08:34:15.515Z,19.30
2022-09-10T08:36:48.363Z,19.30
2022-09-10T08:39:15.982Z,19.20
2022-09-10T08:42:06.038Z,19.30
2022-09-10T08:44:52.888Z,20.50
2022-09-10T08:47:30.046Z,20.90
2022-09-10T08:50:04.190Z,21.00
2022-09-10T08:52:56.154Z,21.70
2022-09-10T08:55:33.404Z,21.70
2022-09-10T08:58:19.108Z,22.10
2022-09-10T13:14:32.676Z,20.20
2022-09-10T13:16:59.861Z,20.00
2022-09-10T13:19:26.931Z,19.70
2022-09-10T13:21:55.308Z,19.60
2022-09-10T13:24:34.631Z,19.50
2022-09-10T13:27:35.832Z,19.50
2022-09-10T13:30:19.616Z,19.30
2022-09-10T13:32:57.083Z,19.30
2022-09-10T13:36:01.152Z,19.20
2022-09-10T13:38:49.334Z,19.20
2022-09-10T13:41:37.417Z,19.30
2022-09-10T13:44:38.435Z,19.40
2022-09-10T13:47:20.999Z,19.30
2022-09-10T13:49:56.601Z,19.10
2022-09-10T13:52:28.950Z,19.10
2022-09-10T13:54:56.647Z,19.20
2022-09-10T13:57:26.814Z,19.30
2022-09-10T14:00:20.364Z,19.30
2022-09-10T14:02:52.927Z,19.20
2022-09-10T14:05:29.205Z,19.10
2022-09-10T14:07:57.656Z,19.10
2022-09-10T14:10:25.595Z,18.90
2022-09-10T14:12:53.072Z,19.00
2022-09-10T14:15:23.081Z,19.00
2022-09-10T14:17:52.279Z,19.00
2022-09-10T14:20:19.335Z,19.10
2022-09-10T14:22:46.640Z,19.10
2022-09-10T14:25:31.620Z,19.10
2022-09-10T14:28:16.621Z,19.00
2022-09-10T14:30:44.604Z,19.00
2022-09-10T14:33:28.592Z,18.90
2022-09-10T14:35:58.089Z,18.90
2022-09-10T14:38:26.783Z,18.80
2022-09-10T14:41:04.379Z,18.70
2022-09-10T14:43:35.540Z,18.70
2022-09-10T14:46:03.637Z,18.50
2022-09-10T14:48:41.409Z,18.50
2022-09-10T14:51:12.757Z,18.50
2022-09-10T14:53:41.536Z,18.40
2022-09-10T14:56:32.858Z,18.50
2022-09-10T14:59:06.463Z,18.40
2022-09-10T15:01:35.403Z,18.30
2022-09-10T15:04:03.571Z,18.30
2022-09-10T15:06:31.753Z,18.30
2022-09-10T15:08:58.838Z,18.30
2022-09-10T15:11:27.866Z,18.10
2022-09-10T15:14:00.904Z,18.10
2022-09-10T15:16:28.020Z,18.00
2022-09-10T15:18:55.614Z,17.90
2022-09-10T15:21:23.160Z,17.80
2022-09-10T15:23:50.349Z,17.70
2022-09-10T15:26:17.451Z,17.60
2022-09-10T15:28:44.529Z,17.60
2022-09-10T16:56:09.137Z,16.30
2022-09-10T16:58:37.112Z,16.20
2022-09-10T17:01:06.345Z,16.20
2022-09-10T17:03:33.433Z,16.20
2022-09-10T17:06:00.587Z,16.10
2022-09-10T17:08:29.507Z,16.10
2022-09-10T17:10:56.957Z,16.00
2022-09-10T17:13:24.143Z,15.90
2022-09-10T17:15:52.222Z,15.80
2022-09-10T17:18:19.340Z,15.80
2022-09-10T17:20:48.454Z,15.70
2022-09-10T17:23:18.688Z,15.70
2022-09-10T17:25:45.877Z,15.60
2022-09-10T17:28:12.963Z,15.60
2022-09-10T17:30:40.221Z,15.60
2022-09-10T17:33:07.348Z,15.50
2022-09-10T17:35:34.440Z,15.50
2022-09-10T17:38:01.557Z,15.40
2022-09-10T17:40:29.328Z,15.40
2022-09-10T17:42:56.458Z,15.40
2022-09-10T17:45:24.012Z,15.30
2022-09-10T17:47:51.122Z,15.30
2022-09-10T17:50:18.305Z,15.20
2022-09-10T17:52:46.032Z,15.20
2022-09-10T17:55:13.133Z,15.20
2022-09-10T17:57:40.203Z,15.20
2022-09-10T18:00:08.296Z,15.30
2022-09-10T18:02:35.400Z,15.20
2022-09-10T18:05:02.299Z,15.20
2022-09-10T18:07:29.727Z,15.00
2022-09-10T18:09:56.642Z,15.00
2022-09-10T18:12:23.731Z,15.00
2022-09-10T18:14:51.231Z,15.00
2022-09-10T18:17:18.213Z,15.00
2022-09-10T18:19:45.256Z,14.90
2022-09-10T18:22:12.711Z,14.90
2022-09-10T18:24:39.832Z,14.80
2022-09-10T18:27:07.300Z,14.80
2022-09-10T18:29:34.364Z,14.70
2022-09-10T18:32:01.834Z,14.70
2022-09-10T18:34:29.619Z,14.70
2022-09-10T18:36:57.904Z,14.70
2022-09-10T18:39:26.220Z,14.70
2022-09-10T18:41:53.535Z,14.60
2022-09-10T18:44:33.422Z,14.50
2022-09-10T18:47:00.531Z,14.50
2022-09-10T18:49:27.649Z,14.40
2022-09-10T18:51:56.499Z,14.40
2022-09-10T18:54:24.112Z,14.40
2022-09-10T18:56:51.013Z,14.30
2022-09-10T18:59:20.352Z,14.20
2022-09-10T19:01:48.420Z,14.20
2022-09-10T19:04:16.820Z,14.10
2022-09-10T19:06:45.086Z,14.10
2022-09-10T19:09:13.516Z,14.10
2022-09-10T19:11:41.457Z,14.10
2022-09-10T19:14:16.957Z,14.00
2022-09-10T19:16:44.087Z,14.00
2022-09-10T19:19:18.586Z,14.00
2022-09-10T19:21:47.042Z,14.00
2022-09-10T19:24:14.829Z,13.90
2022-09-10T19:26:42.262Z,13.90
2022-09-10T19:29:10.031Z,13.80
2022-09-10T19:31:37.533Z,13.70
2022-09-10T19:34:06.000Z,13.70
2022-09-10T19:36:35.432Z,13.60
2022-09-10T19:39:12.745Z,13.60
2022-09-10T19:41:40.344Z,13.50
2022-09-10T19:44:08.602Z,13.30
2022-09-10T19:46:36.697Z,13.30
2022-09-10T19:49:04.332Z,13.20
2022-09-10T19:51:32.664Z,13.20
2022-09-10T19:54:02.889Z,13.20
2022-09-10T19:56:34.266Z,13.10
2022-09-10T19:59:02.745Z,13.20
2022-09-10T20:01:33.509Z,13.10
2022-09-10T20:04:01.748Z,12.90
2022-09-10T20:06:29.998Z,12.90
2022-09-10T20:08:57.543Z,12.80
2022-09-10T20:11:25.768Z,12.80
2022-09-10T20:13:57.323Z,12.80
2022-09-10T20:16:25.154Z,12.80
2022-09-10T20:18:52.345Z,12.70
2022-09-10T20:21:23.868Z,12.70
2022-09-10T20:23:51.997Z,12.70
2022-09-10T20:26:20.335Z,12.70
2022-09-10T20:28:50.496Z,12.70
2022-09-10T20:31:17.633Z,12.60
2022-09-10T20:33:45.309Z,12.60
2022-09-10T20:36:15.159Z,12.50
2022-09-10T20:38:42.246Z,12.50
2022-09-10T20:41:10.026Z,12.50
2022-09-10T20:43:37.655Z,12.50
2022-09-10T20:46:05.274Z,12.50
2022-09-10T20:48:32.268Z,12.40
2022-09-10T20:50:59.859Z,12.50
2022-09-10T20:53:27.243Z,12.40
2022-09-10T20:56:02.626Z,12.40
2022-09-10T20:58:29.654Z,12.30
2022-09-10T21:01:04.215Z,12.30
2022-09-10T21:03:31.236Z,12.20
2022-09-10T21:05:58.434Z,12.10
2022-09-10T21:08:25.403Z,12.10
2022-09-10T21:10:52.378Z,12.10
2022-09-10T21:13:23.243Z,12.10
2022-09-10T21:15:51.955Z,12.10
2022-09-10T21:18:19.282Z,12.10
2022-09-10T21:20:46.435Z,12.20
2022-09-10T21:23:13.344Z,12.20
2022-09-10T21:25:40.257Z,12.20
2022-09-10T21:28:07.161Z,12.20
2022-09-10T21:30:34.095Z,12.20
2022-09-10T21:33:01.000Z,12.20
2022-09-10T21:35:27.901Z,12.20
2022-09-10T21:37:54.920Z,12.10
2022-09-10T21:40:21.802Z,12.00
2022-09-10T21:42:48.678Z,12.00
2022-09-10T21:45:15.676Z,11.90
2022-09-10T21:47:43.593Z,11.90
2022-09-10T21:50:10.654Z,11.80
2022-09-10T21:52:37.550Z,11.90
2022-09-10T21:55:04.616Z,11.90
2022-09-10T21:57:31.555Z,11.90
2022-09-10T21:59:58.788Z,11.90
2022-09-10T22:02:25.806Z,11.80
2022-09-10T22:04:52.800Z,11.80
2022-09-10T22:07:21.497Z,11.80
2022-09-10T22:09:48.435Z,11.80
2022-09-10T22:12:15.379Z,11.80
2022-09-10T22:14:42.306Z,11.80
2022-09-10T22:17:09.276Z,11.80
2022-09-10T22:19:36.218Z,11.70
2022-09-10T22:22:03.265Z,11.80
2022-09-10T22:24:30.223Z,11.70
2022-09-10T22:26:57.258Z,11.60
2022-09-10T22:29:25.040Z,11.60
2022-09-10T22:31:52.435Z,11.60
2022-09-10T22:34:20.620Z,11.60
2022-09-10T22:36:49.454Z,11.60
2022-09-10T22:39:18.072Z,11.50
2022-09-10T22:41:45.468Z,11.40
2022-09-10T22:44:12.846Z,11.40
2022-09-10T22:46:40.371Z,11.40
2022-09-10T22:49:07.979Z,11.30
2022-09-10T22:51:36.233Z,11.30
2022-09-10T22:54:03.650Z,11.40
2022-09-10T22:56:30.709Z,11.40
2022-09-10T22:58:58.495Z,11.40
2022-09-10T23:01:27.545Z,11.30
2022-09-10T23:03:58.512Z,11.20
2022-09-10T23:06:26.867Z,11.20
2022-09-10T23:08:54.755Z,11.20
2022-09-10T23:11:26.200Z,11.20
2022-09-10T23:13:55.098Z,11.20
2022-09-10T23:16:23.548Z,11.10
2022-09-10T23:18:52.400Z,11.10
2022-09-10T23:21:19.665Z,11.10
2022-09-10T23:23:47.733Z,11.20
2022-09-10T23:26:15.833Z,11.20
2022-09-10T23:28:42.962Z,11.20
2022-09-10T23:31:14.322Z,11.10
2022-09-10T23:33:43.031Z,11.10
2022-09-10T23:36:13.383Z,11.10
2022-09-10T23:38:41.384Z,11.00
2022-09-10T23:41:09.064Z,11.00
2022-09-10T23:43:36.068Z,11.00
2022-09-10T23:46:03.470Z,11.00
2022-09-10T23:48:30.574Z,11.00
2022-09-10T23:50:57.605Z,11.00
2022-09-10T23:53:25.435Z,11.00
2022-09-10T23:55:53.535Z,11.00
2022-09-10T23:58:20.782Z,11.00
